createdAt,value
2022-09-12T00:00:15.764Z,18.10
2022-09-12T00:02:42.593Z,18.20
2022-09-12T00:05:09.415Z,18.10
2022-09-12T00:07:36.211Z,18.00
2022-09-12T00:10:03.744Z,17.90
2022-09-12T00:12:30.488Z,17.90
2022-09-12T00:14:57.249Z,17.90
2022-09-12T00:17:24.030Z,17.90
2022-09-12T00:19:50.834Z,18.00
2022-09-12T00:22:17.577Z,18.00
2022-09-12T00:24:44.448Z,18.00
2022-09-12T00:27:11.228Z,17.90
2022-09-12T00:29:38.374Z,17.90
2022-09-12T00:32:05.165Z,17.90
2022-09-12T00:34:31.853Z,17.90
2022-09-12T00:36:58.624Z,17.80
2022-09-12T00:39:25.491Z,17.80
2022-09-12T00:41:52.410Z,17.80
2022-09-12T00:44:22.375Z,17.80
2022-09-12T00:46:55.147Z,17.80
2022-09-12T00:49:29.679Z,17.70
2022-09-12T00:52:07.212Z,17.60
2022-09-12T00:55:00.097Z,17.60
2022-09-12T00:57:32.878Z,17.50
2022-09-12T01:00:14.500Z,17.50
2022-09-12T01:02:46.519Z,17.50
2022-09-12T01:05:13.910Z,17.50
2022-09-12T01:07:41.669Z,17.60
2022-09-12T01:10:09.872Z,17.60
2022-09-12T01:12:40.618Z,17.60
2022-09-12T01:15:08.580Z,17.60
2022-09-12T01:17:43.111Z,17.50
2022-09-12T01:20:47.726Z,17.50
2022-09-12T01:23:48.466Z,17.50
2022-09-12T01:26:36.734Z,17.50
2022-09-12T01:29:35.374Z,17.40
2022-09-12T01:32:29.373Z,17.40
2022-09-12T01:35:04.672Z,17.40
2022-09-12T01:37:58.035Z,17.30
2022-09-12T01:40:33.694Z,17.30
2022-09-12T01:43:12.151Z,17.30
2022-09-12T01:45:41.146Z,17.30
2022-09-12T01:48:19.676Z,17.20
2022-09-12T01:50:52.861Z,17.20
2022-09-12T01:53:26.413Z,17.20
2022-09-12T01:56:22.491Z,17.10
2022-09-12T01:58:49.299Z,17.20
2022-09-12T02:01:24.499Z,17.10
2022-09-12T02:04:03.914Z,17.10
2022-09-12T02:06:40.299Z,17.10
2022-09-12T02:09:19.691Z,17.10
2022-09-12T02:11:47.686Z,17.10
2022-09-12T02:14:25.621Z,17.20
2022-09-12T02:17:02.566Z,17.10
2022-09-12T02:19:35.781Z,17.10
2022-09-12T02:22:04.872Z,17.10
2022-09-12T02:24:39.968Z,17.10
2022-09-12T02:27:19.650Z,17.10
2022-09-12T02:29:46.685Z,17.00
2022-09-12T02:32:38.234Z,16.90
2022-09-12T02:35:22.713Z,16.90
2022-09-12T02:38:02.311Z,16.90
2022-09-12T02:40:30.540Z,16.90
2022-09-12T02:42:58.097Z,16.80
2022-09-12T02:45:25.242Z,16.80
2022-09-12T02:48:20.371Z,16.80
2022-09-12T02:50:47.372Z,16.80
2022-09-12T02:53:14.340Z,16.80
2022-09-12T02:55:43.106Z,16.90
2022-09-12T02:58:14.479Z,16.80
2022-09-12T03:01:03.479Z,16.80
2022-09-12T03:03:55.230Z,16.80
2022-09-12T03:06:37.379Z,16.80
2022-09-12T03:09:23.754Z,16.70
2022-09-12T03:12:11.948Z,16.80
2022-09-12T03:15:07.510Z,16.80
2022-09-12T03:17:46.621Z,16.70
2022-09-12T03:20:44.512Z,16.70
2022-09-12T03:23:28.711Z,16.60
2022-09-12T03:26:02.301Z,16.60
2022-09-12T03:28:30.395Z,16.60
2022-09-12T03:30:58.144Z,16.50
2022-09-12T03:33:25.759Z,16.50
2022-09-12T03:35:53.473Z,16.50
2022-09-12T03:38:20.269Z,16.40
2022-09-12T03:40:50.308Z,16.40
2022-09-12T03:43:19.551Z,16.40
2022-09-12T03:45:52.230Z,16.40
2022-09-12T03:48:19.014Z,16.50
2022-09-12T03:50:45.935Z,16.50
2022-09-12T03:53:16.948Z,16.50
2022-09-12T03:55:44.098Z,16.50
2022-09-12T03:58:10.944Z,16.50
2022-09-12T04:00:39.116Z,16.60
2022-09-12T04:03:05.925Z,16.60
2022-09-12T04:05:32.661Z,16.50
2022-09-12T04:07:59.395Z,16.40
2022-09-12T04:10:26.165Z,16.40
2022-09-12T04:12:53.001Z,16.40
2022-09-12T04:15:19.825Z,16.40
2022-09-12T04:17:46.576Z,16.40
2022-09-12T04:20:13.396Z,16.40
2022-09-12T04:22:40.352Z,16.40
2022-09-12T04:25:08.055Z,16.40
2022-09-12T04:27:35.274Z,16.40
2022-09-12T04:30:02.667Z,16.40
2022-09-12T04:32:31.223Z,16.30
2022-09-12T04:34:58.193Z,16.40
2022-09-12T04:37:25.053Z,16.30
2022-09-12T04:39:56.105Z,16.30
2022-09-12T04:42:23.323Z,16.30
2022-09-12T04:44:50.241Z,16.30
2022-09-12T04:47:17.006Z,16.30
2022-09-12T04:49:43.803Z,16.20
2022-09-12T04:52:10.528Z,16.20
2022-09-12T04:54:37.966Z,16.20
2022-09-12T04:57:04.774Z,16.10
2022-09-12T04:59:31.520Z,16.10
2022-09-12T05:01:58.724Z,16.00
2022-09-12T05:04:25.524Z,16.10
2022-09-12T05:06:52.348Z,16.10
2022-09-12T05:09:19.189Z,16.10
2022-09-12T05:12:03.638Z,16.10
2022-09-12T05:14:32.677Z,16.10
2022-09-12T05:17:01.528Z,16.10
2022-09-12T05:19:30.237Z,16.10
2022-09-12T05:21:57.191Z,16.10
2022-09-12T05:24:24.760Z,16.10
2022-09-12T05:26:51.787Z,16.10
2022-09-12T05:29:18.989Z,16.10
2022-09-12T05:31:45.980Z,16.10
2022-09-12T05:34:12.792Z,16.10
2022-09-12T05:36:39.688Z,16.00
2022-09-12T05:39:06.668Z,16.00
2022-09-12T05:41:34.231Z,15.90
2022-09-12T05:44:03.957Z,15.90
2022-09-12T05:46:36.059Z,16.00
2022-09-12T05:49:08.703Z,16.10
2022-09-12T05:51:38.367Z,16.10
2022-09-12T05:54:06.606Z,16.20
2022-09-12T05:56:38.871Z,16.20
2022-09-12T05:59:10.651Z,16.20
2022-09-12T06:01:37.667Z,16.20
2022-09-12T06:04:06.617Z,16.20
2022-09-12T06:06:37.726Z,17.70
2022-09-12T06:09:05.616Z,16.30
2022-09-12T06:11:35.521Z,16.30
2022-09-12T06:14:02.396Z,16.30
2022-09-12T06:16:32.224Z,16.30
2022-09-12T06:19:01.801Z,16.30
2022-09-12T06:21:30.895Z,16.20
2022-09-12T06:23:58.960Z,16.40
2022-09-12T06:26:25.818Z,16.30
2022-09-12T06:28:54.513Z,16.40
2022-09-12T06:31:23.550Z,16.40
2022-09-12T06:33:52.145Z,16.40
2022-09-12T06:36:25.065Z,16.50
2022-09-12T06:38:57.244Z,16.60
2022-09-12T06:41:25.544Z,16.60
2022-09-12T06:43:53.348Z,16.70
2022-09-12T06:46:20.651Z,16.70
2022-09-12T06:48:48.101Z,16.80
2022-09-12T06:51:17.745Z,16.90
2022-09-12T06:53:45.871Z,16.90
2022-09-12T06:56:21.417Z,17.20
2022-09-12T06:58:49.907Z,16.90
2022-09-12T07:01:21.976Z,17.10
2022-09-12T07:03:56.845Z,17.20
2022-09-12T07:06:31.677Z,17.20
2022-09-12T07:09:00.198Z,17.20
2022-09-12T07:11:33.682Z,17.30
2022-09-12T07:14:02.281Z,17.40
2022-09-12T07:16:30.384Z,17.60
2022-09-12T07:19:02.764Z,17.70
2022-09-12T07:21:30.086Z,17.80
2022-09-12T07:24:00.383Z,17.90
2022-09-12T07:26:29.257Z,18.10
2022-09-12T07:29:08.308Z,18.30
2022-09-12T07:31:45.210Z,18.50
2022-09-12T07:34:12.242Z,18.70
2022-09-12T07:36:39.294Z,19.00
2022-09-12T07:39:06.133Z,19.10
2022-09-12T07:41:39.720Z,19.30
2022-09-12T07:44:09.207Z,19.60
2022-09-12T07:46:35.955Z,19.70
2022-09-12T07:49:03.078Z,19.90
2022-09-12T07:51:31.941Z,20.00
2022-09-12T07:53:59.327Z,20.00
2022-09-12T07:56:30.657Z,20.10
2022-09-12T07:58:59.605Z,20.20
2022-09-12T08:01:26.682Z,20.40
2022-09-12T08:03:59.022Z,20.50
2022-09-12T08:06:27.815Z,20.60
2022-09-12T08:08:56.962Z,20.60
2022-09-12T08:11:25.820Z,20.60
2022-09-12T08:13:55.880Z,20.70
2022-09-12T08:16:28.676Z,20.80
2022-09-12T08:18:56.212Z,20.90
2022-09-12T08:21:28.119Z,20.90
2022-09-12T08:24:01.040Z,21.00
2022-09-12T08:26:28.262Z,21.00
2022-09-12T08:28:55.414Z,21.00
2022-09-12T08:31:24.385Z,21.10
2022-09-12T08:33:51.836Z,21.10
2022-09-12T08:36:23.652Z,21.20
2022-09-12T08:38:59.892Z,21.30
2022-09-12T08:41:43.680Z,21.40
2022-09-12T08:44:19.807Z,21.40
2022-09-12T08:46:47.111Z,21.40
2022-09-12T08:49:22.976Z,21.50
2022-09-12T08:51:50.296Z,21.50
2022-09-12T08:54:26.933Z,21.60
2022-09-12T08:57:00.885Z,21.60
2022-09-12T08:59:57.993Z,21.60
2022-09-12T09:02:39.846Z,21.60
2022-09-12T09:05:38.862Z,21.70
2022-09-12T09:08:05.671Z,21.70
2022-09-12T09:10:53.053Z,21.80
2022-09-12T09:14:05.500Z,21.80
2022-09-12T09:16:35.062Z,21.90
2022-09-12T09:19:06.573Z,21.90
2022-09-12T09:21:41.325Z,21.90
2022-09-12T09:24:14.756Z,22.00
2022-09-12T09:26:53.871Z,22.00
2022-09-12T09:29:26.528Z,22.00
2022-09-12T09:32:00.295Z,22.00
2022-09-12T09:34:31.717Z,22.00
2022-09-12T09:37:24.564Z,22.00
2022-09-12T09:40:01.902Z,22.10
2022-09-12T09:42:51.702Z,22.10
2022-09-12T09:45:22.147Z,22.10
2022-09-12T09:47:58.881Z,22.10
2022-09-12T09:50:25.954Z,22.20
2022-09-12T09:52:54.029Z,22.20
2022-09-12T09:55:24.755Z,23.60
2022-09-12T09:57:53.168Z,22.20
2022-09-12T10:00:27.575Z,22.20
2022-09-12T10:03:13.438Z,22.20
2022-09-12T10:05:49.451Z,22.20
2022-09-12T10:08:28.685Z,22.20
2022-09-12T10:11:05.642Z,22.20
2022-09-12T10:13:51.448Z,22.20
2022-09-12T10:16:24.953Z,22.20
2022-09-12T10:18:53.421Z,22.20
2022-09-12T10:21:40.251Z,22.20
2022-09-12T10:24:13.933Z,22.20
2022-09-12T10:26:41.988Z,22.20
2022-09-12T10:29:21.998Z,22.20
2022-09-12T10:31:55.424Z,22.20
2022-09-12T10:34:31.155Z,22.20
2022-09-12T10:37:23.873Z,22.20
2022-09-12T10:39:57.228Z,22.30
2022-09-12T10:42:49.710Z,22.30
2022-09-12T10:45:35.731Z,22.40
2022-09-12T10:48:22.692Z,22.40
2022-09-12T10:50:49.463Z,22.50
2022-09-12T10:53:25.491Z,22.40
2022-09-12T10:56:04.045Z,22.50
2022-09-12T10:58:57.750Z,22.50
2022-09-12T11:01:45.262Z,22.50
2022-09-12T11:04:27.405Z,22.50
2022-09-12T11:07:15.636Z,22.50
2022-09-12T11:10:07.031Z,22.50
2022-09-12T11:13:04.715Z,22.50
2022-09-12T11:15:39.500Z,22.50
2022-09-12T11:18:56.494Z,22.50
2022-09-12T11:22:00.210Z,22.50
2022-09-12T11:25:04.324Z,22.50
2022-09-12T11:28:24.755Z,22.50
2022-09-12T11:31:24.643Z,22.50
2022-09-12T11:33:56.499Z,22.50
2022-09-12T11:36:32.495Z,22.50
2022-09-12T11:39:19.869Z,22.50
2022-09-12T11:41:59.665Z,22.60
2022-09-12T11:44:40.610Z,22.80
2022-09-12T11:47:18.628Z,22.90
2022-09-12T11:49:52.015Z,22.90
2022-09-12T11:52:29.516Z,23.00
2022-09-12T11:55:22.429Z,22.90
2022-09-12T11:57:58.456Z,22.90
2022-09-12T12:00:33.970Z,22.90
2022-09-12T12:03:27.178Z,22.90
2022-09-12T12:06:15.196Z,22.90
2022-09-12T12:08:44.503Z,22.90
2022-09-12T12:11:14.270Z,22.90
2022-09-12T12:14:04.626Z,22.90
2022-09-12T12:16:39.590Z,22.90
2022-09-12T12:19:31.860Z,22.90
2022-09-12T12:22:18.262Z,22.90
2022-09-12T12:25:21.434Z,22.90
2022-09-12T12:28:01.904Z,23.00
2022-09-12T12:30:31.728Z,23.00
2022-09-12T12:33:02.146Z,23.00
2022-09-12T12:35:46.776Z,23.00
2022-09-12T12:38:40.960Z,23.10
2022-09-12T12:41:16.391Z,23.10
2022-09-12T12:43:50.937Z,23.20
2022-09-12T12:46:22.674Z,23.20
2022-09-12T12:49:30.888Z,23.30
2022-09-12T12:52:01.609Z,23.30
2022-09-12T12:54:41.136Z,23.20
2022-09-12T12:57:47.203Z,23.30
2022-09-12T13:00:29.847Z,23.30
2022-09-12T13:03:08.728Z,23.30
2022-09-12T13:06:03.326Z,23.40
2022-09-12T13:08:33.447Z,23.40
2022-09-12T13:11:05.364Z,23.30
2022-09-12T13:13:39.115Z,23.40
2022-09-12T13:16:06.687Z,23.30
2022-09-12T13:18:49.137Z,23.30
2022-09-12T13:21:21.619Z,23.30
2022-09-12T13:24:18.824Z,23.30
2022-09-12T13:26:48.020Z,23.30
2022-09-12T13:29:17.911Z,23.30
2022-09-12T13:31:48.861Z,23.40
2022-09-12T13:34:21.021Z,23.40
2022-09-12T13:37:54.004Z,23.40
2022-09-12T13:40:56.552Z,23.40
2022-09-12T13:43:38.585Z,23.40
2022-09-12T13:46:07.450Z,23.30
2022-09-12T13:48:34.783Z,23.30
2022-09-12T13:51:02.937Z,23.30
2022-09-12T13:53:48.139Z,23.30
2022-09-12T13:56:19.762Z,23.50
2022-09-12T13:58:57.776Z,23.40
2022-09-12T14:01:37.055Z,23.50
2022-09-12T14:04:34.768Z,23.50
2022-09-12T14:07:29.844Z,23.50
2022-09-12T14:09:59.507Z,23.50
2022-09-12T14:12:39.323Z,23.50
2022-09-12T14:15:09.591Z,23.50
2022-09-12T14:17:39.460Z,23.60
2022-09-12T14:20:11.904Z,23.60
2022-09-12T14:22:39.551Z,23.60
2022-09-12T14:25:10.303Z,23.60
2022-09-12T14:27:45.794Z,23.60
2022-09-12T14:30:39.933Z,23.60
2022-09-12T14:33:12.617Z,23.60
2022-09-12T14:35:52.771Z,23.60
2022-09-12T14:38:25.710Z,23.60
2022-09-12T14:41:06.602Z,23.70
2022-09-12T14:43:47.048Z,23.60
2022-09-12T14:46:43.020Z,23.60
2022-09-12T14:49:29.043Z,23.60
2022-09-12T14:51:59.370Z,23.60
2022-09-12T14:54:32.986Z,23.60
2022-09-12T14:57:07.954Z,23.60
2022-09-12T14:59:34.839Z,23.60
2022-09-12T15:02:22.521Z,23.60
2022-09-12T15:04:52.010Z,23.60
2022-09-12T15:07:33.733Z,23.60
2022-09-12T15:10:25.466Z,23.50
2022-09-12T15:13:14.446Z,23.50
2022-09-12T15:15:49.720Z,23.50
2022-09-12T15:18:17.042Z,23.50
2022-09-12T15:20:47.573Z,23.50
2022-09-12T15:23:40.062Z,23.50
2022-09-12T15:26:09.833Z,23.50
2022-09-12T15:28:36.718Z,23.50
2022-09-12T15:31:28.898Z,23.40
2022-09-12T15:33:57.321Z,23.40
2022-09-12T15:36:24.986Z,23.40
2022-09-12T15:38:52.570Z,23.40
2022-09-12T15:41:22.093Z,23.40
2022-09-12T15:43:49.419Z,23.40
2022-09-12T15:46:17.794Z,23.40
2022-09-12T15:48:44.719Z,23.40
2022-09-12T15:51:17.470Z,23.40
2022-09-12T15:53:45.486Z,23.40
2022-09-12T15:56:12.508Z,23.40
2022-09-12T15:58:54.618Z,23.30
2022-09-12T16:01:24.572Z,23.30
2022-09-12T16:03:51.444Z,23.30
2022-09-12T16:06:18.195Z,23.30
2022-09-12T16:08:45.088Z,23.30
2022-09-12T16:11:18.757Z,23.30
2022-09-12T16:13:45.671Z,23.30
2022-09-12T16:16:12.460Z,23.20
2022-09-12T16:18:40.530Z,23.20
2022-09-12T16:21:11.458Z,23.20
2022-09-12T16:23:43.675Z,23.20
2022-09-12T16:26:10.887Z,23.20
2022-09-12T16:28:37.775Z,23.20
2022-09-12T16:31:06.721Z,23.20
2022-09-12T16:33:34.061Z,23.20
2022-09-12T16:36:03.327Z,23.20
2022-09-12T16:38:30.691Z,23.30
2022-09-12T16:41:05.785Z,23.30
2022-09-12T16:43:34.575Z,23.30
2022-09-12T16:46:03.257Z,23.30
2022-09-12T16:48:30.427Z,23.30
2022-09-12T16:51:02.043Z,23.30
2022-09-12T16:53:34.971Z,23.30
2022-09-12T16:56:02.032Z,23.30
2022-09-12T16:58:39.697Z,23.20
2022-09-12T17:01:14.599Z,23.20
2022-09-12T17:03:41.766Z,23.20
2022-09-12T17:06:12.263Z,23.20
2022-09-12T17:08:42.670Z,23.10
2022-09-12T17:11:31.706Z,23.10
2022-09-12T17:14:04.860Z,23.10
2022-09-12T17:16:37.202Z,23.00
2022-09-12T17:19:04.885Z,23.00
2022-09-12T17:21:31.886Z,23.00
2022-09-12T17:23:59.316Z,23.00
2022-09-12T17:26:26.897Z,22.90
2022-09-12T17:28:53.673Z,22.80
2022-09-12T17:31:21.381Z,22.80
2022-09-12T17:33:48.390Z,22.80
2022-09-12T17:36:17.811Z,22.80
2022-09-12T17:38:46.097Z,22.80
2022-09-12T17:41:21.556Z,22.70
2022-09-12T17:43:51.028Z,22.70
2022-09-12T17:46:19.053Z,22.60
2022-09-12T17:48:50.482Z,22.60
2022-09-12T17:51:17.585Z,22.60
2022-09-12T17:53:44.409Z,22.60
2022-09-12T17:56:11.891Z,22.50
2022-09-12T17:58:39.305Z,22.50
2022-09-12T18:01:33.153Z,22.50
2022-09-12T18:04:00.839Z,22.50
2022-09-12T18:06:30.735Z,22.40
2022-09-12T18:09:02.339Z,22.40
2022-09-12T18:11:29.893Z,22.40
2022-09-12T18:13:58.686Z,22.30
2022-09-12T18:16:26.944Z,22.30
2022-09-12T18:18:53.839Z,22.20
2022-09-12T18:21:21.119Z,22.20
2022-09-12T18:23:47.913Z,22.10
2022-09-12T18:26:14.902Z,22.10
2022-09-12T18:28:43.524Z,22.00
2022-09-12T18:31:16.705Z,22.00
2022-09-12T18:33:44.045Z,22.00
2022-09-12T18:36:13.448Z,21.90
2022-09-12T18:38:41.643Z,21.80
2022-09-12T18:41:10.906Z,21.80
2022-09-12T18:43:38.497Z,21.70
2022-09-12T18:46:16.238Z,21.70
2022-09-12T18:48:44.857Z,21.70
2022-09-12T18:51:20.605Z,21.60
2022-09-12T18:53:54.856Z,21.60
2022-09-12T18:56:23.208Z,21.50
2022-09-12T18:58:55.070Z,21.50
2022-09-12T19:01:31.047Z,21.40
2022-09-12T19:03:58.199Z,21.40
2022-09-12T19:06:27.805Z,21.30
2022-09-12T19:08:56.271Z,21.40
2022-09-12T19:11:24.476Z,21.30
2022-09-12T19:13:53.150Z,21.30
2022-09-12T19:16:26.789Z,21.20
2022-09-12T19:18:54.796Z,21.20
2022-09-12T19:21:24.714Z,21.20
2022-09-12T19:23:52.704Z,21.10
2022-09-12T19:26:20.946Z,21.10
2022-09-12T19:28:48.004Z,21.10
2022-09-12T19:31:18.820Z,21.00
2022-09-12T19:33:46.520Z,21.00
2022-09-12T19:36:34.168Z,21.00
2022-09-12T19:39:02.306Z,20.90
2022-09-12T19:41:29.393Z,20.90
2022-09-12T19:43:56.842Z,22.20
2022-09-12T19:46:25.830Z,20.90
2022-09-12T19:48:53.473Z,20.90
2022-09-12T19:51:21.547Z,20.80
2022-09-12T19:53:50.215Z,20.70
2022-09-12T19:56:17.405Z,20.70
2022-09-12T19:58:46.799Z,20.60
2022-09-12T20:01:19.703Z,20.60
2022-09-12T20:03:47.472Z,20.50
2022-09-12T20:06:16.329Z,20.40
2022-09-12T20:08:44.096Z,20.40
2022-09-12T20:11:13.479Z,20.40
2022-09-12T20:13:41.289Z,20.40
2022-09-12T20:16:20.389Z,20.40
2022-09-12T20:18:51.957Z,20.50
2022-09-12T20:21:22.076Z,20.50
2022-09-12T20:23:49.435Z,20.40
2022-09-12T20:26:16.165Z,20.30
2022-09-12T20:28:42.986Z,20.20
2022-09-12T20:31:16.794Z,20.20
2022-09-12T20:33:47.544Z,20.10
2022-09-12T20:36:19.129Z,20.00
2022-09-12T20:38:54.316Z,20.00
2022-09-12T20:41:22.116Z,19.90
2022-09-12T20:43:56.227Z,20.00
2022-09-12T20:46:24.496Z,20.00
2022-09-12T20:48:51.860Z,20.00
2022-09-12T20:51:20.040Z,19.90
2022-09-12T20:53:47.897Z,19.90
2022-09-12T20:56:15.100Z,20.00
2022-09-12T20:58:44.406Z,20.00
2022-09-12T21:01:13.701Z,19.90
2022-09-12T21:03:44.438Z,19.90
2022-09-12T21:06:16.975Z,19.90
2022-09-12T21:08:44.562Z,19.90
2022-09-12T21:11:11.534Z,20.00
2022-09-12T21:13:38.626Z,19.90
2022-09-12T21:16:11.914Z,19.90
2022-09-12T21:18:39.277Z,19.80
2022-09-12T21:21:06.292Z,19.80
2022-09-12T21:23:33.721Z,19.80
2022-09-12T21:26:01.861Z,19.80
2022-09-12T21:28:28.890Z,19.70
2022-09-12T21:30:56.061Z,19.70
2022-09-12T21:33:23.768Z,19.70
2022-09-12T21:35:50.672Z,19.70
2022-09-12T21:38:19.156Z,19.70
2022-09-12T21:40:47.619Z,19.70
2022-09-12T21:43:15.091Z,19.70
2022-09-12T21:45:42.147Z,19.60
2022-09-12T21:48:08.978Z,19.80
2022-09-12T21:50:35.764Z,19.60
2022-09-12T21:53:02.597Z,19.60
2022-09-12T21:55:29.416Z,19.60
2022-09-12T21:57:56.206Z,19.70
2022-09-12T22:00:24.030Z,19.60
2022-09-12T22:02:50.952Z,19.60
2022-09-12T22:05:21.341Z,19.60
2022-09-12T22:07:48.132Z,19.60
2022-09-12T22:10:15.328Z,19.60
2022-09-12T22:12:46.179Z,19.60
2022-09-12T22:15:39.026Z,19.60
2022-09-12T22:18:00.582Z,19.60
2022-09-12T22:20:27.446Z,19.60
2022-09-12T22:23:13.090Z,19.60
2022-09-12T22:25:40.203Z,19.50
2022-09-12T22:28:07.104Z,19.40
2022-09-12T22:30:33.954Z,19.40
2022-09-12T22:33:00.766Z,19.40
2022-09-12T22:35:27.598Z,19.40
2022-09-12T22:37:54.443Z,19.30
2022-09-12T22:40:21.259Z,19.30
2022-09-12T22:42:50.950Z,19.30
2022-09-12T22:45:18.517Z,19.20
2022-09-12T22:47:45.377Z,19.30
2022-09-12T22:50:12.102Z,19.30
2022-09-12T22:52:38.845Z,19.20
2022-09-12T22:55:05.831Z,19.10
2022-09-12T22:57:32.659Z,19.10
2022-09-12T22:59:59.536Z,19.00
2022-09-12T23:02:26.389Z,19.00
2022-09-12T23:04:53.159Z,19.00
2022-09-12T23:07:19.888Z,18.90
2022-09-12T23:09:48.110Z,18.80
2022-09-12T23:12:15.576Z,18.70
2022-09-12T23:14:42.450Z,18.80
2022-09-12T23:17:09.232Z,18.70
2022-09-12T23:19:35.987Z,18.60
2022-09-12T23:22:02.837Z,18.60
2022-09-12T23:24:29.813Z,18.70
2022-09-12T23:26:56.631Z,18.70
2022-09-12T23:29:23.448Z,18.70
2022-09-12T23:31:50.229Z,18.70
2022-09-12T23:34:17.230Z,18.70
2022-09-12T23:36:44.099Z,18.60
2022-09-12T23:39:10.945Z,18.70
2022-09-12T23:41:38.177Z,18.70
2022-09-12T23:44:05.202Z,18.70
2022-09-12T23:46:32.073Z,18.60
2022-09-12T23:48:58.989Z,18.60
2022-09-12T23:51:25.964Z,18.60
2022-09-12T23:53:52.642Z,18.70
2022-09-12T23:56:19.367Z,18.70
2022-09-12T23:58:46.107Z,18.70
